createdAt,value
2022-08-17T00:01:26.313Z,26.46
2022-08-17T00:04:30.591Z,26.68
2022-08-17T00:07:33.628Z,26.86
2022-08-17T00:10:37.139Z,26.95
2022-08-17T00:13:45.630Z,26.95
2022-08-17T00:16:57.045Z,26.94
2022-08-17T00:20:01.249Z,26.96
2022-08-17T00:23:06.988Z,26.81
2022-08-17T00:26:10.913Z,26.65
2022-08-17T00:29:20.204Z,26.50
2022-08-17T00:33:12.019Z,26.32
2022-08-17T00:35:47.694Z,26.13
2022-08-17T00:38:50.804Z,26.06
2022-08-17T00:41:53.876Z,25.97
2022-08-17T00:44:58.402Z,26.02
2022-08-17T00:48:01.484Z,25.95
2022-08-17T00:51:10.425Z,26.21
2022-08-17T00:54:18.255Z,26.41
2022-08-17T00:57:25.704Z,26.47
2022-08-17T01:00:34.691Z,26.44
2022-08-17T01:03:38.782Z,26.43
2022-08-17T01:06:43.649Z,26.73
2022-08-17T01:09:46.816Z,26.66
2022-08-17T01:12:50.450Z,26.59
2022-08-17T01:15:59.630Z,26.61
2022-08-17T01:19:06.429Z,26.37
2022-08-17T01:22:18.870Z,26.29
2022-08-17T01:25:23.462Z,26.13
2022-08-17T01:28:52.647Z,25.96
2022-08-17T01:31:57.834Z,25.85
2022-08-17T01:35:01.831Z,25.86
2022-08-17T01:38:06.744Z,25.85
2022-08-17T01:41:13.012Z,25.99
2022-08-17T01:44:17.804Z,26.12
2022-08-17T01:47:20.879Z,26.26
2022-08-17T01:50:27.788Z,26.45
2022-08-17T01:53:37.886Z,26.52
2022-08-17T01:56:44.297Z,26.58
2022-08-17T01:59:50.587Z,26.58
2022-08-17T02:02:53.643Z,26.47
2022-08-17T02:05:56.833Z,26.26
2022-08-17T02:09:03.876Z,26.13
2022-08-17T02:12:37.862Z,26.15
2022-08-17T02:15:32.124Z,26.02
2022-08-17T02:18:35.229Z,25.99
2022-08-17T02:21:40.060Z,25.88
2022-08-17T02:24:58.933Z,25.78
2022-08-17T02:28:04.971Z,25.66
2022-08-17T02:31:10.556Z,25.62
2022-08-17T02:34:14.108Z,25.67
2022-08-17T02:37:18.319Z,25.49
2022-08-17T02:40:36.158Z,25.60
2022-08-17T02:43:39.790Z,25.75
2022-08-17T02:46:42.829Z,25.88
2022-08-17T02:49:55.891Z,25.98
2022-08-17T02:53:02.332Z,26.10
2022-08-17T02:56:07.835Z,26.15
2022-08-17T02:59:10.907Z,25.96
2022-08-17T03:02:13.996Z,25.84
2022-08-17T03:05:21.622Z,25.76
2022-08-17T03:08:25.666Z,25.68
2022-08-17T03:11:30.171Z,25.71
2022-08-17T03:14:35.196Z,25.62
2022-08-17T03:17:41.450Z,25.63
2022-08-17T03:20:45.175Z,25.60
2022-08-17T03:23:48.287Z,25.74
2022-08-17T03:26:59.077Z,25.78
2022-08-17T03:30:03.378Z,25.97
2022-08-17T03:33:10.034Z,26.10
2022-08-17T03:36:13.276Z,26.13
2022-08-17T03:39:16.307Z,26.28
2022-08-17T03:42:32.527Z,26.40
2022-08-17T03:45:54.225Z,26.52
2022-08-17T03:49:14.826Z,26.56
2022-08-17T03:52:35.384Z,26.61
2022-08-17T03:55:56.943Z,26.57
2022-08-17T03:59:01.422Z,26.35
2022-08-17T04:02:09.190Z,25.84
2022-08-17T04:05:12.288Z,25.54
2022-08-17T04:08:15.540Z,25.56
2022-08-17T04:11:18.601Z,25.24
2022-08-17T04:14:23.040Z,25.34
2022-08-17T04:17:28.884Z,25.06
2022-08-17T04:20:31.989Z,24.73
2022-08-17T04:23:36.677Z,24.95
2022-08-17T04:26:53.402Z,25.51
2022-08-17T04:29:59.103Z,25.87
2022-08-17T04:33:07.314Z,26.12
2022-08-17T04:36:11.219Z,26.27
2022-08-17T04:39:14.288Z,26.38
2022-08-17T04:42:17.349Z,26.45
2022-08-17T04:45:21.958Z,26.50
2022-08-17T04:48:27.853Z,26.55
2022-08-17T04:51:46.694Z,26.66
2022-08-17T04:54:59.343Z,26.54
2022-08-17T04:58:02.402Z,26.32
2022-08-17T05:01:08.091Z,26.28
2022-08-17T05:04:32.815Z,26.12
2022-08-17T05:07:36.756Z,25.79
2022-08-17T05:10:45.585Z,25.76
2022-08-17T05:13:50.387Z,25.69
2022-08-17T05:16:54.974Z,25.73
2022-08-17T05:19:58.067Z,25.78
2022-08-17T05:23:04.657Z,25.90
2022-08-17T05:26:08.066Z,25.94
2022-08-17T05:29:14.689Z,25.94
2022-08-17T05:32:37.773Z,25.93
2022-08-17T05:35:47.064Z,25.89
2022-08-17T05:38:50.668Z,26.24
2022-08-17T05:41:53.969Z,26.43
2022-08-17T05:44:59.090Z,26.42
2022-08-17T05:48:03.937Z,26.41
2022-08-17T05:51:17.102Z,26.36
2022-08-17T05:54:33.549Z,26.30
2022-08-17T05:57:53.002Z,26.18
2022-08-17T06:01:04.269Z,26.13
2022-08-17T06:04:20.200Z,26.10
2022-08-17T06:07:33.436Z,26.03
2022-08-17T06:10:46.575Z,25.95
2022-08-17T06:14:05.026Z,25.94
2022-08-17T06:17:14.130Z,26.05
2022-08-17T06:20:18.806Z,26.30
2022-08-17T06:23:27.857Z,26.54
2022-08-17T06:26:38.578Z,26.68
2022-08-17T06:29:54.694Z,26.84
2022-08-17T06:33:00.318Z,26.94
2022-08-17T06:36:32.290Z,27.00
2022-08-17T06:39:47.618Z,27.05
2022-08-17T06:43:06.181Z,27.10
2022-08-17T06:46:14.696Z,27.04
2022-08-17T06:49:25.955Z,26.94
2022-08-17T06:52:45.520Z,26.85
2022-08-17T06:56:06.134Z,26.75
2022-08-17T06:59:14.957Z,26.71
2022-08-17T07:02:29.155Z,26.63
2022-08-17T07:05:52.607Z,26.54
2022-08-17T07:09:02.261Z,26.66
2022-08-17T07:12:15.108Z,26.81
2022-08-17T07:15:23.919Z,27.00
2022-08-17T07:18:33.153Z,27.12
2022-08-17T07:21:46.065Z,27.17
2022-08-17T07:24:54.823Z,27.21
2022-08-17T07:28:01.122Z,27.18
2022-08-17T07:31:06.194Z,27.28
2022-08-17T07:34:14.637Z,27.27
2022-08-17T07:37:20.632Z,27.26
2022-08-17T07:40:31.480Z,27.14
2022-08-17T07:43:38.057Z,26.94
2022-08-17T07:47:08.053Z,26.78
2022-08-17T07:50:27.842Z,26.68
2022-08-17T07:53:32.151Z,26.69
2022-08-17T07:56:44.266Z,26.61
2022-08-17T08:00:16.552Z,26.54
2022-08-17T08:03:27.310Z,26.51
2022-08-17T08:06:32.375Z,26.45
2022-08-17T08:09:42.390Z,26.56
2022-08-17T08:12:49.000Z,26.78
2022-08-17T08:16:13.366Z,26.93
2022-08-17T08:19:20.924Z,27.08
2022-08-17T08:22:31.423Z,27.28
2022-08-17T08:25:53.377Z,27.31
2022-08-17T08:29:09.538Z,27.35
2022-08-17T08:32:20.699Z,27.40
2022-08-17T08:35:31.007Z,27.43
2022-08-17T08:38:45.559Z,27.55
2022-08-17T08:41:58.962Z,27.55
2022-08-17T08:45:13.753Z,27.50
2022-08-17T08:48:53.855Z,27.56
2022-08-17T08:52:02.976Z,27.48
2022-08-17T08:55:12.960Z,27.44
2022-08-17T08:58:31.943Z,27.68
2022-08-17T09:01:53.884Z,27.61
2022-08-17T09:05:15.066Z,27.28
2022-08-17T09:08:25.067Z,26.70
2022-08-17T09:11:35.683Z,26.44
2022-08-17T09:15:07.152Z,26.13
2022-08-17T09:18:59.178Z,26.02
2022-08-17T09:21:53.624Z,25.93
2022-08-17T09:25:04.469Z,26.26
2022-08-17T09:28:13.414Z,26.61
2022-08-17T09:31:21.515Z,26.86
2022-08-17T09:34:34.725Z,27.08
2022-08-17T09:37:49.088Z,27.29
2022-08-17T09:40:58.079Z,27.45
2022-08-17T09:44:22.750Z,27.54
2022-08-17T09:47:31.749Z,27.63
2022-08-17T09:51:05.453Z,27.71
2022-08-17T09:54:37.608Z,27.76
2022-08-17T09:57:50.460Z,27.80
2022-08-17T10:01:01.629Z,27.79
2022-08-17T10:04:29.323Z,27.82
2022-08-17T10:07:38.331Z,27.80
2022-08-17T10:11:00.193Z,27.66
2022-08-17T10:14:36.596Z,27.52
2022-08-17T10:17:43.477Z,27.37
2022-08-17T10:21:16.990Z,27.32
2022-08-17T10:25:21.359Z,27.24
2022-08-17T10:28:19.781Z,27.16
2022-08-17T10:31:36.268Z,27.18
2022-08-17T10:35:11.730Z,27.32
2022-08-17T10:38:34.770Z,27.42
2022-08-17T10:41:44.243Z,27.56
2022-08-17T10:44:56.326Z,27.67
2022-08-17T10:48:06.060Z,27.73
2022-08-17T10:51:12.760Z,27.74
2022-08-17T10:54:49.972Z,27.81
2022-08-17T10:58:21.127Z,27.82
2022-08-17T11:01:58.375Z,27.77
2022-08-17T11:05:33.940Z,27.58
2022-08-17T11:09:18.629Z,27.41
2022-08-17T11:12:37.659Z,27.44
2022-08-17T11:15:58.866Z,27.44
2022-08-17T11:19:32.243Z,27.41
2022-08-17T11:23:13.384Z,27.38
2022-08-17T11:26:26.214Z,27.51
2022-08-17T11:29:36.535Z,27.64
2022-08-17T11:32:48.657Z,27.66
2022-08-17T11:36:06.471Z,27.73
2022-08-17T11:39:28.694Z,27.82
2022-08-17T11:42:52.457Z,27.89
2022-08-17T11:46:18.170Z,27.91
2022-08-17T11:50:04.503Z,27.99
2022-08-17T11:53:08.995Z,28.10
2022-08-17T11:56:30.349Z,28.05
2022-08-17T11:59:59.775Z,27.87
2022-08-17T12:03:24.980Z,27.72
2022-08-17T12:06:57.001Z,27.60
2022-08-17T12:10:01.783Z,27.52
2022-08-17T12:13:11.436Z,27.56
2022-08-17T12:16:16.613Z,27.48
2022-08-17T12:19:22.610Z,27.40
2022-08-17T12:22:33.021Z,27.52
2022-08-17T12:25:41.022Z,27.66
2022-08-17T12:28:47.923Z,27.76
2022-08-17T12:31:52.985Z,27.87
2022-08-17T12:34:56.174Z,27.95
2022-08-17T12:38:01.685Z,28.02
2022-08-17T12:41:21.112Z,28.02
2022-08-17T12:44:26.455Z,28.03
2022-08-17T12:47:31.932Z,28.06
2022-08-17T12:50:37.209Z,28.07
2022-08-17T12:53:42.585Z,28.00
2022-08-17T12:56:47.674Z,27.88
2022-08-17T12:59:59.619Z,27.83
2022-08-17T13:03:06.100Z,27.75
2022-08-17T13:06:12.198Z,27.72
2022-08-17T13:09:21.273Z,27.71
2022-08-17T13:12:29.321Z,27.69
2022-08-17T13:15:38.267Z,27.70
2022-08-17T13:18:50.255Z,27.90
2022-08-17T13:21:57.202Z,28.02
2022-08-17T13:25:05.565Z,28.16
2022-08-17T13:28:30.618Z,28.21
2022-08-17T13:31:52.643Z,28.29
2022-08-17T13:35:15.429Z,28.32
2022-08-17T13:38:41.187Z,28.36
2022-08-17T13:41:46.726Z,28.46
2022-08-17T13:44:50.071Z,28.54
2022-08-17T13:48:06.435Z,28.45
2022-08-17T13:51:26.646Z,28.31
2022-08-17T13:54:32.593Z,28.27
2022-08-17T13:57:37.761Z,28.19
2022-08-17T14:00:40.861Z,28.08
2022-08-17T14:03:44.408Z,28.00
2022-08-17T14:06:54.172Z,27.90
2022-08-17T14:10:01.697Z,27.95
2022-08-17T14:13:06.687Z,28.13
2022-08-17T14:16:09.810Z,28.28
2022-08-17T14:19:14.175Z,28.36
2022-08-17T14:22:22.770Z,28.47
2022-08-17T14:25:28.417Z,28.57
2022-08-17T14:28:32.967Z,28.62
2022-08-17T14:31:40.116Z,28.70
2022-08-17T14:34:45.331Z,28.72
2022-08-17T14:37:48.419Z,28.69
2022-08-17T14:40:51.659Z,28.67
2022-08-17T14:43:56.278Z,28.59
2022-08-17T14:47:00.764Z,28.47
2022-08-17T14:50:04.872Z,28.39
2022-08-17T14:53:14.764Z,28.31
2022-08-17T14:56:18.195Z,28.26
2022-08-17T14:59:22.778Z,28.13
2022-08-17T15:02:29.891Z,28.06
2022-08-17T15:05:36.765Z,28.13
2022-08-17T15:08:39.903Z,28.21
2022-08-17T15:11:43.063Z,28.27
2022-08-17T15:14:47.581Z,28.35
2022-08-17T15:17:51.261Z,28.42
2022-08-17T15:20:54.927Z,28.51
2022-08-17T15:23:58.053Z,28.56
2022-08-17T15:27:01.129Z,28.59
2022-08-17T15:30:07.717Z,28.59
2022-08-17T15:33:16.260Z,28.55
2022-08-17T15:36:20.255Z,28.40
2022-08-17T15:39:23.431Z,28.30
2022-08-17T15:42:26.824Z,28.25
2022-08-17T15:45:33.587Z,28.21
2022-08-17T15:48:42.697Z,28.18
2022-08-17T15:51:45.840Z,28.15
2022-08-17T15:54:53.511Z,28.14
2022-08-17T15:57:56.674Z,28.19
2022-08-17T16:01:16.707Z,28.31
2022-08-17T16:04:30.029Z,28.39
2022-08-17T16:07:34.277Z,28.47
2022-08-17T16:10:37.675Z,28.55
2022-08-17T16:13:41.656Z,28.56
2022-08-17T16:16:51.730Z,28.54
2022-08-17T16:19:54.874Z,28.59
2022-08-17T16:22:58.435Z,28.69
2022-08-17T16:26:01.436Z,28.55
2022-08-17T16:29:07.734Z,28.64
2022-08-17T16:32:15.173Z,28.70
2022-08-17T16:35:21.337Z,28.74
2022-08-17T16:38:24.421Z,28.72
2022-08-17T16:41:45.623Z,28.70
2022-08-17T16:44:49.352Z,28.57
2022-08-17T16:47:54.539Z,28.48
2022-08-17T16:51:04.517Z,28.36
2022-08-17T16:54:08.679Z,28.37
2022-08-17T16:57:11.859Z,28.32
2022-08-17T17:00:16.963Z,28.25
2022-08-17T17:03:25.914Z,28.21
2022-08-17T17:06:39.175Z,28.15
2022-08-17T17:09:43.896Z,28.16
2022-08-17T17:13:01.212Z,28.21
2022-08-17T17:16:20.833Z,28.30
2022-08-17T17:19:34.994Z,28.43
2022-08-17T17:22:48.308Z,28.49
2022-08-17T17:25:59.623Z,28.49
2022-08-17T17:29:19.534Z,28.53
2022-08-17T17:32:32.240Z,28.61
2022-08-17T17:35:44.861Z,28.58
2022-08-17T17:38:50.990Z,28.60
2022-08-17T17:41:57.357Z,28.47
2022-08-17T17:45:07.848Z,28.34
2022-08-17T17:48:11.861Z,28.21
2022-08-17T17:52:05.222Z,28.15
2022-08-17T17:54:58.480Z,28.07
2022-08-17T17:58:28.665Z,28.07
2022-08-17T18:01:46.122Z,28.07
2022-08-17T18:05:00.351Z,28.08
2022-08-17T18:08:16.480Z,28.10
2022-08-17T18:11:37.113Z,28.20
2022-08-17T18:15:02.255Z,28.27
2022-08-17T18:18:37.653Z,28.35
2022-08-17T18:21:44.696Z,28.38
2022-08-17T18:24:56.004Z,28.41
2022-08-17T18:27:59.243Z,28.42
2022-08-17T18:31:16.978Z,28.43
2022-08-17T18:34:45.853Z,28.40
2022-08-17T18:37:50.566Z,28.23
2022-08-17T18:41:08.287Z,28.09
2022-08-17T18:44:25.160Z,28.01
2022-08-17T18:47:29.612Z,27.94
2022-08-17T18:50:39.592Z,27.88
2022-08-17T18:53:42.880Z,27.81
2022-08-17T18:56:52.519Z,27.76
2022-08-17T18:59:56.017Z,27.72
2022-08-17T19:03:02.993Z,27.77
2022-08-17T19:06:19.181Z,27.66
2022-08-17T19:09:33.826Z,27.68
2022-08-17T19:12:43.235Z,27.90
2022-08-17T19:16:11.727Z,28.03
2022-08-17T19:19:20.013Z,28.18
2022-08-17T19:22:28.672Z,28.28
2022-08-17T19:25:35.591Z,28.36
2022-08-17T19:28:48.458Z,28.40
2022-08-17T19:31:55.271Z,28.42
2022-08-17T19:35:00.652Z,28.49
2022-08-17T19:38:13.266Z,28.50
2022-08-17T19:41:23.735Z,28.56
2022-08-17T19:44:47.193Z,28.57
2022-08-17T19:48:03.152Z,28.56
2022-08-17T19:51:12.556Z,28.55
2022-08-17T19:54:24.840Z,28.56
2022-08-17T19:57:38.237Z,28.56
2022-08-17T20:00:50.378Z,28.53
2022-08-17T20:03:59.204Z,28.45
2022-08-17T20:07:05.722Z,28.34
2022-08-17T20:10:14.556Z,28.21
2022-08-17T20:13:33.179Z,28.09
2022-08-17T20:16:38.183Z,28.00
2022-08-17T20:19:52.152Z,27.91
2022-08-17T20:23:02.508Z,27.83
2022-08-17T20:26:18.511Z,27.77
2022-08-17T20:29:37.655Z,27.96
2022-08-17T20:32:55.428Z,28.05
2022-08-17T20:36:06.418Z,28.18
2022-08-17T20:39:32.081Z,28.23
2022-08-17T20:42:38.109Z,28.33
2022-08-17T20:45:58.233Z,28.34
2022-08-17T20:49:27.124Z,28.38
2022-08-17T20:52:47.569Z,28.36
2022-08-17T20:55:54.816Z,28.29
2022-08-17T20:59:00.737Z,28.17
2022-08-17T21:02:18.399Z,28.02
2022-08-17T21:05:34.517Z,27.88
2022-08-17T21:08:45.688Z,27.80
2022-08-17T21:12:04.100Z,27.75
2022-08-17T21:15:13.476Z,27.70
2022-08-17T21:18:26.014Z,27.68
2022-08-17T21:21:39.512Z,27.83
2022-08-17T21:24:54.829Z,27.94
2022-08-17T21:28:10.661Z,27.94
2022-08-17T21:31:34.206Z,27.98
2022-08-17T21:34:39.029Z,28.08
2022-08-17T21:37:45.530Z,28.09
2022-08-17T21:40:51.388Z,28.21
2022-08-17T21:44:02.912Z,28.21
2022-08-17T21:47:20.938Z,27.99
2022-08-17T21:50:26.187Z,27.81
2022-08-17T21:53:40.574Z,27.80
2022-08-17T21:56:48.190Z,27.62
2022-08-17T21:59:57.334Z,27.50
2022-08-17T22:03:03.140Z,27.38
2022-08-17T22:06:21.604Z,27.31
2022-08-17T22:09:28.634Z,27.24
2022-08-17T22:12:31.834Z,27.28
2022-08-17T22:15:39.960Z,27.41
2022-08-17T22:18:44.762Z,27.72
2022-08-17T22:21:47.836Z,27.82
2022-08-17T22:24:57.421Z,27.88
2022-08-17T22:28:02.843Z,27.89
2022-08-17T22:31:08.351Z,28.00
2022-08-17T22:34:15.862Z,28.04
2022-08-17T22:37:27.499Z,27.93
2022-08-17T22:40:34.890Z,27.70
2022-08-17T22:43:43.151Z,27.62
2022-08-17T22:46:56.570Z,27.45
2022-08-17T22:50:02.774Z,27.43
2022-08-17T22:53:33.303Z,27.29
2022-08-17T22:56:55.952Z,27.20
2022-08-17T22:59:59.043Z,27.22
2022-08-17T23:03:12.012Z,27.44
2022-08-17T23:06:15.064Z,27.64
2022-08-17T23:09:18.121Z,27.61
2022-08-17T23:12:27.462Z,27.77
2022-08-17T23:15:32.929Z,27.73
2022-08-17T23:18:37.456Z,27.90
2022-08-17T23:21:41.011Z,27.85
2022-08-17T23:24:49.080Z,27.94
2022-08-17T23:27:53.864Z,27.76
2022-08-17T23:30:57.003Z,27.50
2022-08-17T23:34:00.344Z,27.40
2022-08-17T23:37:04.515Z,27.20
2022-08-17T23:40:08.603Z,27.22
2022-08-17T23:43:23.512Z,27.21
2022-08-17T23:46:27.978Z,27.04
2022-08-17T23:49:31.338Z,27.02
2022-08-17T23:52:36.905Z,27.10
2022-08-17T23:55:39.992Z,27.28
2022-08-17T23:58:45.385Z,27.49
